sensor_id;sensor_type;location;lat;lon;timestamp;P1;durP1;ratioP1;P2;durP2;ratioP2
27925;SDS011;15267;47.838;12.128;2023-09-30T00:00:27;19.70;;;10.73;;
27925;SDS011;15267;47.838;12.128;2023-09-30T00:02:53;21.63;;;11.38;;
27925;SDS011;15267;47.838;12.128;2023-09-30T00:05:19;25.85;;;12.27;;
27925;SDS011;15267;47.838;12.128;2023-09-30T00:07:48;25.05;;;11.45;;
27925;SDS011;15267;47.838;12.128;2023-09-30T00:10:13;24.00;;;11.63;;
27925;SDS011;15267;47.838;12.128;2023-09-30T00:12:40;23.83;;;11.88;;
27925;SDS011;15267;47.838;12.128;2023-09-30T00:15:06;22.08;;;11.45;;
27925;SDS011;15267;47.838;12.128;2023-09-30T00:17:32;23.55;;;12.25;;
27925;SDS011;15267;47.838;12.128;2023-09-30T00:19:58;23.05;;;11.50;;
27925;SDS011;15267;47.838;12.128;2023-09-30T00:22:24;23.50;;;11.10;;
27925;SDS011;15267;47.838;12.128;2023-09-30T00:24:50;27.10;;;12.07;;
27925;SDS011;15267;47.838;12.128;2023-09-30T00:27:16;23.92;;;11.98;;
27925;SDS011;15267;47.838;12.128;2023-09-30T00:29:42;24.63;;;11.32;;
27925;SDS011;15267;47.838;12.128;2023-09-30T00:32:08;24.05;;;11.55;;
27925;SDS011;15267;47.838;12.128;2023-09-30T00:34:35;23.20;;;11.23;;
27925;SDS011;15267;47.838;12.128;2023-09-30T00:37:01;26.75;;;12.52;;
27925;SDS011;15267;47.838;12.128;2023-09-30T00:39:27;26.73;;;12.45;;
27925;SDS011;15267;47.838;12.128;2023-09-30T00:41:59;24.23;;;11.85;;
27925;SDS011;15267;47.838;12.128;2023-09-30T00:44:25;21.10;;;11.80;;
27925;SDS011;15267;47.838;12.128;2023-09-30T00:46:52;27.20;;;13.07;;
27925;SDS011;15267;47.838;12.128;2023-09-30T00:49:20;28.13;;;12.75;;
27925;SDS011;15267;47.838;12.128;2023-09-30T00:51:46;26.05;;;12.30;;
27925;SDS011;15267;47.838;12.128;2023-09-30T00:54:12;26.92;;;13.02;;
27925;SDS011;15267;47.838;12.128;2023-09-30T00:56:41;26.35;;;13.15;;
27925;SDS011;15267;47.838;12.128;2023-09-30T00:59:09;27.45;;;13.02;;
27925;SDS011;15267;47.838;12.128;2023-09-30T01:01:35;27.55;;;13.43;;
27925;SDS011;15267;47.838;12.128;2023-09-30T01:04:01;27.38;;;13.25;;
27925;SDS011;15267;47.838;12.128;2023-09-30T01:06:28;25.40;;;12.40;;
27925;SDS011;15267;47.838;12.128;2023-09-30T01:08:54;27.42;;;13.30;;
27925;SDS011;15267;47.838;12.128;2023-09-30T01:11:20;27.17;;;13.50;;
27925;SDS011;15267;47.838;12.128;2023-09-30T01:13:47;25.63;;;12.73;;
27925;SDS011;15267;47.838;12.128;2023-09-30T01:16:14;28.65;;;12.52;;
27925;SDS011;15267;47.838;12.128;2023-09-30T01:18:40;25.73;;;13.05;;
27925;SDS011;15267;47.838;12.128;2023-09-30T01:21:07;27.38;;;13.43;;
27925;SDS011;15267;47.838;12.128;2023-09-30T01:23:34;26.30;;;13.32;;
27925;SDS011;15267;47.838;12.128;2023-09-30T01:26:04;24.30;;;13.20;;
27925;SDS011;15267;47.838;12.128;2023-09-30T01:28:31;26.75;;;13.70;;
27925;SDS011;15267;47.838;12.128;2023-09-30T01:30:57;29.20;;;13.35;;
27925;SDS011;15267;47.838;12.128;2023-09-30T01:33:23;30.27;;;13.75;;
27925;SDS011;15267;47.838;12.128;2023-09-30T01:35:49;24.83;;;12.75;;
27925;SDS011;15267;47.838;12.128;2023-09-30T01:38:15;28.52;;;12.57;;
27925;SDS011;15267;47.838;12.128;2023-09-30T01:40:41;29.17;;;13.50;;
27925;SDS011;15267;47.838;12.128;2023-09-30T01:43:08;25.92;;;12.60;;
27925;SDS011;15267;47.838;12.128;2023-09-30T01:45:34;25.75;;;12.68;;
27925;SDS011;15267;47.838;12.128;2023-09-30T01:48:01;29.13;;;14.07;;
27925;SDS011;15267;47.838;12.128;2023-09-30T01:50:27;28.33;;;14.30;;
27925;SDS011;15267;47.838;12.128;2023-09-30T01:52:53;30.63;;;14.57;;
27925;SDS011;15267;47.838;12.128;2023-09-30T01:55:19;28.42;;;14.35;;
27925;SDS011;15267;47.838;12.128;2023-09-30T01:57:45;27.95;;;12.90;;
27925;SDS011;15267;47.838;12.128;2023-09-30T02:00:11;28.02;;;13.27;;
27925;SDS011;15267;47.838;12.128;2023-09-30T02:02:37;27.60;;;14.10;;
27925;SDS011;15267;47.838;12.128;2023-09-30T02:05:04;27.58;;;13.60;;
27925;SDS011;15267;47.838;12.128;2023-09-30T02:07:33;28.83;;;13.07;;
27925;SDS011;15267;47.838;12.128;2023-09-30T02:09:59;28.77;;;13.68;;
27925;SDS011;15267;47.838;12.128;2023-09-30T02:12:26;25.73;;;12.48;;
27925;SDS011;15267;47.838;12.128;2023-09-30T02:14:53;24.23;;;11.80;;
27925;SDS011;15267;47.838;12.128;2023-09-30T02:17:19;28.38;;;13.25;;
27925;SDS011;15267;47.838;12.128;2023-09-30T02:19:45;26.55;;;13.15;;
27925;SDS011;15267;47.838;12.128;2023-09-30T02:22:12;25.70;;;12.95;;
27925;SDS011;15267;47.838;12.128;2023-09-30T02:24:38;28.95;;;14.00;;
27925;SDS011;15267;47.838;12.128;2023-09-30T02:27:05;26.60;;;14.15;;
27925;SDS011;15267;47.838;12.128;2023-09-30T02:29:31;26.02;;;13.63;;
27925;SDS011;15267;47.838;12.128;2023-09-30T02:31:57;30.45;;;13.77;;
27925;SDS011;15267;47.838;12.128;2023-09-30T02:34:23;28.67;;;13.73;;
27925;SDS011;15267;47.838;12.128;2023-09-30T02:36:49;27.80;;;13.77;;
27925;SDS011;15267;47.838;12.128;2023-09-30T02:39:16;29.70;;;13.73;;
27925;SDS011;15267;47.838;12.128;2023-09-30T02:41:42;26.42;;;13.02;;
27925;SDS011;15267;47.838;12.128;2023-09-30T02:44:08;24.27;;;13.05;;
27925;SDS011;15267;47.838;12.128;2023-09-30T02:46:34;23.98;;;12.80;;
27925;SDS011;15267;47.838;12.128;2023-09-30T02:49:01;28.50;;;14.00;;
27925;SDS011;15267;47.838;12.128;2023-09-30T02:51:27;26.60;;;14.50;;
27925;SDS011;15267;47.838;12.128;2023-09-30T02:53:54;25.48;;;13.70;;
27925;SDS011;15267;47.838;12.128;2023-09-30T02:56:20;29.17;;;13.55;;
27925;SDS011;15267;47.838;12.128;2023-09-30T02:58:49;28.48;;;13.77;;
27925;SDS011;15267;47.838;12.128;2023-09-30T03:01:16;27.17;;;13.32;;
27925;SDS011;15267;47.838;12.128;2023-09-30T03:03:43;24.80;;;12.68;;
27925;SDS011;15267;47.838;12.128;2023-09-30T03:06:09;26.63;;;13.30;;
27925;SDS011;15267;47.838;12.128;2023-09-30T03:08:36;31.65;;;13.07;;
27925;SDS011;15267;47.838;12.128;2023-09-30T03:11:02;26.30;;;13.30;;
27925;SDS011;15267;47.838;12.128;2023-09-30T03:13:29;26.65;;;13.18;;
27925;SDS011;15267;47.838;12.128;2023-09-30T03:15:55;26.92;;;12.98;;
27925;SDS011;15267;47.838;12.128;2023-09-30T03:18:21;27.52;;;13.63;;
27925;SDS011;15267;47.838;12.128;2023-09-30T03:20:51;25.92;;;13.57;;
27925;SDS011;15267;47.838;12.128;2023-09-30T03:23:21;27.27;;;14.13;;
27925;SDS011;15267;47.838;12.128;2023-09-30T03:25:47;29.08;;;14.48;;
27925;SDS011;15267;47.838;12.128;2023-09-30T03:28:13;29.23;;;13.55;;
27925;SDS011;15267;47.838;12.128;2023-09-30T03:30:40;24.65;;;13.18;;
27925;SDS011;15267;47.838;12.128;2023-09-30T03:33:06;25.13;;;12.95;;
27925;SDS011;15267;47.838;12.128;2023-09-30T03:35:32;24.98;;;12.45;;
27925;SDS011;15267;47.838;12.128;2023-09-30T03:37:58;24.60;;;12.85;;
27925;SDS011;15267;47.838;12.128;2023-09-30T03:40:27;25.55;;;13.50;;
27925;SDS011;15267;47.838;12.128;2023-09-30T03:42:57;26.15;;;12.68;;
27925;SDS011;15267;47.838;12.128;2023-09-30T03:45:23;24.65;;;12.23;;
27925;SDS011;15267;47.838;12.128;2023-09-30T03:47:49;28.88;;;14.30;;
27925;SDS011;15267;47.838;12.128;2023-09-30T03:50:16;26.13;;;13.50;;
27925;SDS011;15267;47.838;12.128;2023-09-30T03:52:43;24.58;;;13.05;;
27925;SDS011;15267;47.838;12.128;2023-09-30T03:55:13;26.73;;;13.52;;
27925;SDS011;15267;47.838;12.128;2023-09-30T03:57:43;26.90;;;13.90;;
27925;SDS011;15267;47.838;12.128;2023-09-30T04:00:12;26.48;;;12.70;;
27925;SDS011;15267;47.838;12.128;2023-09-30T04:02:43;25.15;;;12.88;;
27925;SDS011;15267;47.838;12.128;2023-09-30T04:05:13;26.83;;;13.43;;
27925;SDS011;15267;47.838;12.128;2023-09-30T04:07:40;28.05;;;13.07;;
27925;SDS011;15267;47.838;12.128;2023-09-30T04:10:07;24.65;;;13.18;;
27925;SDS011;15267;47.838;12.128;2023-09-30T04:12:33;24.10;;;12.88;;
27925;SDS011;15267;47.838;12.128;2023-09-30T04:14:59;28.05;;;14.35;;
27925;SDS011;15267;47.838;12.128;2023-09-30T04:17:25;25.65;;;12.38;;
27925;SDS011;15267;47.838;12.128;2023-09-30T04:19:54;24.70;;;13.45;;
27925;SDS011;15267;47.838;12.128;2023-09-30T04:22:20;24.48;;;13.18;;
27925;SDS011;15267;47.838;12.128;2023-09-30T04:24:46;28.23;;;13.13;;
27925;SDS011;15267;47.838;12.128;2023-09-30T04:27:15;25.00;;;12.95;;
27925;SDS011;15267;47.838;12.128;2023-09-30T04:29:41;24.58;;;11.73;;
27925;SDS011;15267;47.838;12.128;2023-09-30T04:32:07;24.75;;;12.43;;
27925;SDS011;15267;47.838;12.128;2023-09-30T04:34:33;22.98;;;12.07;;
27925;SDS011;15267;47.838;12.128;2023-09-30T04:36:59;26.88;;;12.45;;
27925;SDS011;15267;47.838;12.128;2023-09-30T04:39:25;22.00;;;11.93;;
27925;SDS011;15267;47.838;12.128;2023-09-30T04:41:51;21.70;;;11.95;;
27925;SDS011;15267;47.838;12.128;2023-09-30T04:44:16;29.85;;;13.52;;
27925;SDS011;15267;47.838;12.128;2023-09-30T04:46:42;25.10;;;12.77;;
27925;SDS011;15267;47.838;12.128;2023-09-30T04:49:12;28.02;;;12.63;;
27925;SDS011;15267;47.838;12.128;2023-09-30T04:51:39;25.88;;;12.35;;
27925;SDS011;15267;47.838;12.128;2023-09-30T04:54:05;25.50;;;12.45;;
27925;SDS011;15267;47.838;12.128;2023-09-30T04:56:33;25.90;;;13.05;;
27925;SDS011;15267;47.838;12.128;2023-09-30T04:58:59;22.95;;;11.75;;
27925;SDS011;15267;47.838;12.128;2023-09-30T05:01:26;24.70;;;12.60;;
27925;SDS011;15267;47.838;12.128;2023-09-30T05:03:52;23.55;;;12.55;;
27925;SDS011;15267;47.838;12.128;2023-09-30T05:06:18;24.20;;;11.80;;
27925;SDS011;15267;47.838;12.128;2023-09-30T05:08:44;24.42;;;11.32;;
27925;SDS011;15267;47.838;12.128;2023-09-30T05:11:10;25.30;;;13.23;;
27925;SDS011;15267;47.838;12.128;2023-09-30T05:13:36;25.92;;;12.88;;
27925;SDS011;15267;47.838;12.128;2023-09-30T05:16:02;24.30;;;11.93;;
27925;SDS011;15267;47.838;12.128;2023-09-30T05:18:28;24.02;;;13.18;;
27925;SDS011;15267;47.838;12.128;2023-09-30T05:20:54;26.15;;;12.77;;
27925;SDS011;15267;47.838;12.128;2023-09-30T05:23:21;25.58;;;12.80;;
27925;SDS011;15267;47.838;12.128;2023-09-30T05:25:47;23.50;;;12.45;;
27925;SDS011;15267;47.838;12.128;2023-09-30T05:28:13;23.35;;;12.75;;
27925;SDS011;15267;47.838;12.128;2023-09-30T05:30:40;24.63;;;12.45;;
27925;SDS011;15267;47.838;12.128;2023-09-30T05:33:06;24.33;;;12.52;;
27925;SDS011;15267;47.838;12.128;2023-09-30T05:35:32;24.70;;;13.65;;
27925;SDS011;15267;47.838;12.128;2023-09-30T05:37:58;24.60;;;12.65;;
27925;SDS011;15267;47.838;12.128;2023-09-30T05:40:24;23.48;;;12.23;;
27925;SDS011;15267;47.838;12.128;2023-09-30T05:42:52;26.75;;;13.35;;
27925;SDS011;15267;47.838;12.128;2023-09-30T05:45:18;27.10;;;12.90;;
27925;SDS011;15267;47.838;12.128;2023-09-30T05:47:44;27.83;;;12.07;;
27925;SDS011;15267;47.838;12.128;2023-09-30T05:50:10;23.42;;;11.50;;
27925;SDS011;15267;47.838;12.128;2023-09-30T05:52:50;24.77;;;12.43;;
27925;SDS011;15267;47.838;12.128;2023-09-30T05:55:16;24.38;;;12.70;;
27925;SDS011;15267;47.838;12.128;2023-09-30T05:57:48;24.48;;;12.65;;
27925;SDS011;15267;47.838;12.128;2023-09-30T06:00:14;22.92;;;11.80;;
27925;SDS011;15267;47.838;12.128;2023-09-30T06:02:46;23.27;;;12.70;;
27925;SDS011;15267;47.838;12.128;2023-09-30T06:05:12;24.58;;;12.48;;
27925;SDS011;15267;47.838;12.128;2023-09-30T06:07:40;24.05;;;12.48;;
27925;SDS011;15267;47.838;12.128;2023-09-30T06:10:10;25.70;;;13.32;;
27925;SDS011;15267;47.838;12.128;2023-09-30T06:12:36;24.27;;;12.73;;
27925;SDS011;15267;47.838;12.128;2023-09-30T06:15:02;24.55;;;13.10;;
27925;SDS011;15267;47.838;12.128;2023-09-30T06:17:28;25.52;;;12.70;;
27925;SDS011;15267;47.838;12.128;2023-09-30T06:19:54;26.80;;;12.85;;
27925;SDS011;15267;47.838;12.128;2023-09-30T06:22:20;25.15;;;13.07;;
27925;SDS011;15267;47.838;12.128;2023-09-30T06:24:46;26.75;;;12.55;;
27925;SDS011;15267;47.838;12.128;2023-09-30T06:27:13;24.92;;;12.70;;
27925;SDS011;15267;47.838;12.128;2023-09-30T06:29:39;22.33;;;11.48;;
27925;SDS011;15267;47.838;12.128;2023-09-30T06:32:07;27.40;;;12.75;;
27925;SDS011;15267;47.838;12.128;2023-09-30T06:34:33;30.30;;;13.45;;
27925;SDS011;15267;47.838;12.128;2023-09-30T06:36:59;24.23;;;12.45;;
27925;SDS011;15267;47.838;12.128;2023-09-30T06:39:25;23.58;;;12.23;;
27925;SDS011;15267;47.838;12.128;2023-09-30T06:41:51;24.65;;;12.93;;
27925;SDS011;15267;47.838;12.128;2023-09-30T06:44:17;25.70;;;13.25;;
27925;SDS011;15267;47.838;12.128;2023-09-30T06:46:44;24.35;;;12.55;;
27925;SDS011;15267;47.838;12.128;2023-09-30T06:49:10;24.50;;;12.75;;
27925;SDS011;15267;47.838;12.128;2023-09-30T06:51:36;25.85;;;12.60;;
27925;SDS011;15267;47.838;12.128;2023-09-30T06:54:04;26.70;;;13.63;;
27925;SDS011;15267;47.838;12.128;2023-09-30T06:56:31;25.27;;;12.50;;
27925;SDS011;15267;47.838;12.128;2023-09-30T06:58:57;25.58;;;13.10;;
27925;SDS011;15267;47.838;12.128;2023-09-30T07:01:24;25.88;;;12.13;;
27925;SDS011;15267;47.838;12.128;2023-09-30T07:03:50;26.75;;;13.50;;
27925;SDS011;15267;47.838;12.128;2023-09-30T07:06:23;26.33;;;13.43;;
27925;SDS011;15267;47.838;12.128;2023-09-30T07:08:49;24.08;;;13.23;;
27925;SDS011;15267;47.838;12.128;2023-09-30T07:11:15;24.55;;;12.90;;
27925;SDS011;15267;47.838;12.128;2023-09-30T07:13:41;29.55;;;12.90;;
27925;SDS011;15267;47.838;12.128;2023-09-30T07:16:07;25.80;;;13.20;;
27925;SDS011;15267;47.838;12.128;2023-09-30T07:18:33;26.83;;;13.52;;
27925;SDS011;15267;47.838;12.128;2023-09-30T07:20:59;27.25;;;13.40;;
27925;SDS011;15267;47.838;12.128;2023-09-30T07:23:25;24.05;;;12.65;;
27925;SDS011;15267;47.838;12.128;2023-09-30T07:25:51;25.55;;;12.50;;
27925;SDS011;15267;47.838;12.128;2023-09-30T07:28:17;25.85;;;12.77;;
27925;SDS011;15267;47.838;12.128;2023-09-30T07:30:43;26.60;;;13.00;;
27925;SDS011;15267;47.838;12.128;2023-09-30T07:33:09;31.05;;;14.13;;
27925;SDS011;15267;47.838;12.128;2023-09-30T07:35:36;26.50;;;13.90;;
27925;SDS011;15267;47.838;12.128;2023-09-30T07:38:04;29.88;;;14.25;;
27925;SDS011;15267;47.838;12.128;2023-09-30T07:40:29;26.95;;;13.77;;
27925;SDS011;15267;47.838;12.128;2023-09-30T07:42:56;29.33;;;14.07;;
27925;SDS011;15267;47.838;12.128;2023-09-30T07:45:22;26.75;;;13.45;;
27925;SDS011;15267;47.838;12.128;2023-09-30T07:47:48;24.95;;;12.85;;
27925;SDS011;15267;47.838;12.128;2023-09-30T07:50:14;27.30;;;13.45;;
27925;SDS011;15267;47.838;12.128;2023-09-30T07:52:40;26.60;;;13.48;;
27925;SDS011;15267;47.838;12.128;2023-09-30T07:55:07;26.58;;;13.60;;
27925;SDS011;15267;47.838;12.128;2023-09-30T07:57:33;28.05;;;13.95;;
27925;SDS011;15267;47.838;12.128;2023-09-30T07:59:59;27.25;;;12.38;;
27925;SDS011;15267;47.838;12.128;2023-09-30T08:02:27;26.52;;;13.30;;
27925;SDS011;15267;47.838;12.128;2023-09-30T08:04:58;28.88;;;13.20;;
27925;SDS011;15267;47.838;12.128;2023-09-30T08:07:24;28.50;;;13.57;;
27925;SDS011;15267;47.838;12.128;2023-09-30T08:09:50;30.52;;;13.82;;
27925;SDS011;15267;47.838;12.128;2023-09-30T08:12:16;26.55;;;12.82;;
27925;SDS011;15267;47.838;12.128;2023-09-30T08:14:42;26.52;;;12.73;;
27925;SDS011;15267;47.838;12.128;2023-09-30T08:17:11;24.48;;;11.88;;
27925;SDS011;15267;47.838;12.128;2023-09-30T08:19:37;23.65;;;11.75;;
27925;SDS011;15267;47.838;12.128;2023-09-30T08:22:03;28.23;;;12.63;;
27925;SDS011;15267;47.838;12.128;2023-09-30T08:24:29;25.83;;;12.70;;
27925;SDS011;15267;47.838;12.128;2023-09-30T08:26:55;30.90;;;12.10;;
27925;SDS011;15267;47.838;12.128;2023-09-30T08:29:21;26.58;;;12.63;;
27925;SDS011;15267;47.838;12.128;2023-09-30T08:31:47;27.27;;;12.80;;
27925;SDS011;15267;47.838;12.128;2023-09-30T08:34:15;25.27;;;12.77;;
27925;SDS011;15267;47.838;12.128;2023-09-30T08:36:42;23.02;;;11.50;;
27925;SDS011;15267;47.838;12.128;2023-09-30T08:39:08;28.38;;;12.80;;
27925;SDS011;15267;47.838;12.128;2023-09-30T08:41:37;22.98;;;11.10;;
27925;SDS011;15267;47.838;12.128;2023-09-30T08:44:03;23.75;;;11.35;;
27925;SDS011;15267;47.838;12.128;2023-09-30T08:46:30;22.50;;;11.30;;
27925;SDS011;15267;47.838;12.128;2023-09-30T08:49:00;24.67;;;10.77;;
27925;SDS011;15267;47.838;12.128;2023-09-30T08:51:27;19.02;;;9.73;;
27925;SDS011;15267;47.838;12.128;2023-09-30T08:53:54;18.23;;;10.00;;
27925;SDS011;15267;47.838;12.128;2023-09-30T08:56:21;21.85;;;9.85;;
27925;SDS011;15267;47.838;12.128;2023-09-30T08:58:49;20.55;;;9.55;;
27925;SDS011;15267;47.838;12.128;2023-09-30T09:01:16;22.15;;;9.82;;
27925;SDS011;15267;47.838;12.128;2023-09-30T09:03:43;20.45;;;10.20;;
27925;SDS011;15267;47.838;12.128;2023-09-30T09:06:09;19.65;;;9.50;;
27925;SDS011;15267;47.838;12.128;2023-09-30T09:08:35;20.33;;;9.25;;
27925;SDS011;15267;47.838;12.128;2023-09-30T09:11:01;21.33;;;10.43;;
27925;SDS011;15267;47.838;12.128;2023-09-30T09:13:44;19.42;;;9.73;;
27925;SDS011;15267;47.838;12.128;2023-09-30T09:16:11;22.00;;;10.10;;
27925;SDS011;15267;47.838;12.128;2023-09-30T09:18:37;18.63;;;9.40;;
27925;SDS011;15267;47.838;12.128;2023-09-30T09:21:13;21.75;;;10.07;;
27925;SDS011;15267;47.838;12.128;2023-09-30T09:26:23;19.50;;;10.13;;
27925;SDS011;15267;47.838;12.128;2023-09-30T09:28:49;19.60;;;10.38;;
27925;SDS011;15267;47.838;12.128;2023-09-30T09:31:19;22.35;;;10.30;;
27925;SDS011;15267;47.838;12.128;2023-09-30T09:33:46;23.45;;;11.07;;
27925;SDS011;15267;47.838;12.128;2023-09-30T09:36:12;20.73;;;10.43;;
27925;SDS011;15267;47.838;12.128;2023-09-30T09:38:45;20.58;;;10.05;;
27925;SDS011;15267;47.838;12.128;2023-09-30T09:41:11;19.48;;;10.52;;
27925;SDS011;15267;47.838;12.128;2023-09-30T09:43:37;22.98;;;10.82;;
27925;SDS011;15267;47.838;12.128;2023-09-30T09:46:07;23.30;;;10.27;;
27925;SDS011;15267;47.838;12.128;2023-09-30T09:48:35;21.42;;;10.52;;
27925;SDS011;15267;47.838;12.128;2023-09-30T09:51:01;20.45;;;10.35;;
27925;SDS011;15267;47.838;12.128;2023-09-30T09:53:29;23.38;;;10.98;;
27925;SDS011;15267;47.838;12.128;2023-09-30T09:55:56;22.70;;;10.98;;
27925;SDS011;15267;47.838;12.128;2023-09-30T09:58:25;22.80;;;10.35;;
27925;SDS011;15267;47.838;12.128;2023-09-30T10:00:56;20.30;;;10.15;;
27925;SDS011;15267;47.838;12.128;2023-09-30T10:03:23;21.45;;;9.93;;
27925;SDS011;15267;47.838;12.128;2023-09-30T10:05:49;21.05;;;10.07;;
27925;SDS011;15267;47.838;12.128;2023-09-30T10:08:15;21.13;;;9.95;;
27925;SDS011;15267;47.838;12.128;2023-09-30T10:10:43;22.15;;;10.63;;
27925;SDS011;15267;47.838;12.128;2023-09-30T10:13:27;17.63;;;9.50;;
27925;SDS011;15267;47.838;12.128;2023-09-30T10:15:56;18.42;;;9.05;;
27925;SDS011;15267;47.838;12.128;2023-09-30T10:18:22;21.67;;;11.23;;
27925;SDS011;15267;47.838;12.128;2023-09-30T10:20:48;26.00;;;12.55;;
27925;SDS011;15267;47.838;12.128;2023-09-30T10:23:17;24.50;;;11.43;;
27925;SDS011;15267;47.838;12.128;2023-09-30T10:25:44;23.58;;;12.25;;
27925;SDS011;15267;47.838;12.128;2023-09-30T10:36:29;32.47;;;16.30;;
27925;SDS011;15267;47.838;12.128;2023-09-30T10:38:55;35.70;;;16.98;;
27925;SDS011;15267;47.838;12.128;2023-09-30T10:46:51;30.17;;;15.30;;
27925;SDS011;15267;47.838;12.128;2023-09-30T10:51:43;28.40;;;14.63;;
27925;SDS011;15267;47.838;12.128;2023-09-30T10:54:10;30.08;;;15.57;;
27925;SDS011;15267;47.838;12.128;2023-09-30T10:56:38;32.83;;;15.88;;
27925;SDS011;15267;47.838;12.128;2023-09-30T10:59:04;30.65;;;14.50;;
27925;SDS011;15267;47.838;12.128;2023-09-30T11:01:33;29.75;;;14.23;;
27925;SDS011;15267;47.838;12.128;2023-09-30T11:04:00;32.15;;;15.35;;
27925;SDS011;15267;47.838;12.128;2023-09-30T11:06:31;27.85;;;13.65;;
27925;SDS011;15267;47.838;12.128;2023-09-30T11:08:58;26.85;;;14.27;;
27925;SDS011;15267;47.838;12.128;2023-09-30T11:14:58;26.75;;;12.88;;
27925;SDS011;15267;47.838;12.128;2023-09-30T11:16:49;24.85;;;13.48;;
27925;SDS011;15267;47.838;12.128;2023-09-30T11:19:15;27.52;;;13.05;;
27925;SDS011;15267;47.838;12.128;2023-09-30T11:21:42;25.40;;;12.52;;
27925;SDS011;15267;47.838;12.128;2023-09-30T11:24:11;27.05;;;13.07;;
27925;SDS011;15267;47.838;12.128;2023-09-30T11:26:38;24.60;;;12.75;;
27925;SDS011;15267;47.838;12.128;2023-09-30T11:29:06;25.48;;;13.18;;
27925;SDS011;15267;47.838;12.128;2023-09-30T11:31:32;27.48;;;13.43;;
27925;SDS011;15267;47.838;12.128;2023-09-30T11:33:59;24.48;;;12.52;;
27925;SDS011;15267;47.838;12.128;2023-09-30T11:36:28;27.05;;;13.77;;
27925;SDS011;15267;47.838;12.128;2023-09-30T11:38:55;27.15;;;12.88;;
27925;SDS011;15267;47.838;12.128;2023-09-30T11:41:21;26.02;;;13.02;;
27925;SDS011;15267;47.838;12.128;2023-09-30T11:46:26;28.48;;;13.13;;
27925;SDS011;15267;47.838;12.128;2023-09-30T11:49:04;27.38;;;12.82;;
27925;SDS011;15267;47.838;12.128;2023-09-30T11:51:42;24.02;;;11.95;;
27925;SDS011;15267;47.838;12.128;2023-09-30T11:54:10;24.80;;;11.80;;
27925;SDS011;15267;47.838;12.128;2023-09-30T11:56:37;25.05;;;12.13;;
27925;SDS011;15267;47.838;12.128;2023-09-30T11:59:03;22.95;;;11.65;;
27925;SDS011;15267;47.838;12.128;2023-09-30T12:01:29;25.55;;;11.93;;
27925;SDS011;15267;47.838;12.128;2023-09-30T12:03:57;23.20;;;11.73;;
27925;SDS011;15267;47.838;12.128;2023-09-30T12:06:23;22.40;;;10.85;;
27925;SDS011;15267;47.838;12.128;2023-09-30T12:08:49;25.02;;;12.30;;
27925;SDS011;15267;47.838;12.128;2023-09-30T12:11:16;25.05;;;12.07;;
27925;SDS011;15267;47.838;12.128;2023-09-30T12:13:42;26.77;;;12.18;;
27925;SDS011;15267;47.838;12.128;2023-09-30T12:16:09;23.48;;;11.18;;
27925;SDS011;15267;47.838;12.128;2023-09-30T12:18:36;22.98;;;11.55;;
27925;SDS011;15267;47.838;12.128;2023-09-30T12:21:03;23.60;;;11.90;;
27925;SDS011;15267;47.838;12.128;2023-09-30T12:23:31;25.70;;;12.18;;
27925;SDS011;15267;47.838;12.128;2023-09-30T12:25:57;23.00;;;11.27;;
27925;SDS011;15267;47.838;12.128;2023-09-30T12:28:23;23.30;;;11.88;;
27925;SDS011;15267;47.838;12.128;2023-09-30T12:30:49;24.95;;;12.82;;
27925;SDS011;15267;47.838;12.128;2023-09-30T12:33:15;24.98;;;12.02;;
27925;SDS011;15267;47.838;12.128;2023-09-30T12:35:41;24.73;;;12.65;;
27925;SDS011;15267;47.838;12.128;2023-09-30T12:38:07;25.40;;;12.25;;
27925;SDS011;15267;47.838;12.128;2023-09-30T12:40:33;23.60;;;11.52;;
27925;SDS011;15267;47.838;12.128;2023-09-30T12:42:58;25.55;;;12.55;;
27925;SDS011;15267;47.838;12.128;2023-09-30T12:45:24;25.02;;;13.07;;
27925;SDS011;15267;47.838;12.128;2023-09-30T12:47:50;25.90;;;12.85;;
27925;SDS011;15267;47.838;12.128;2023-09-30T12:50:19;26.15;;;13.43;;
27925;SDS011;15267;47.838;12.128;2023-09-30T12:52:44;26.75;;;12.73;;
27925;SDS011;15267;47.838;12.128;2023-09-30T12:55:10;26.08;;;13.18;;
27925;SDS011;15267;47.838;12.128;2023-09-30T12:57:36;26.98;;;13.15;;
27925;SDS011;15267;47.838;12.128;2023-09-30T13:00:02;28.70;;;13.35;;
27925;SDS011;15267;47.838;12.128;2023-09-30T13:02:29;25.92;;;12.75;;
27925;SDS011;15267;47.838;12.128;2023-09-30T13:04:55;27.38;;;13.30;;
27925;SDS011;15267;47.838;12.128;2023-09-30T13:07:21;27.23;;;13.88;;
27925;SDS011;15267;47.838;12.128;2023-09-30T13:09:47;26.75;;;13.48;;
27925;SDS011;15267;47.838;12.128;2023-09-30T13:12:13;29.15;;;13.40;;
27925;SDS011;15267;47.838;12.128;2023-09-30T13:14:39;27.45;;;14.43;;
27925;SDS011;15267;47.838;12.128;2023-09-30T13:17:05;30.02;;;14.50;;
27925;SDS011;15267;47.838;12.128;2023-09-30T13:19:31;29.40;;;14.25;;
27925;SDS011;15267;47.838;12.128;2023-09-30T13:21:58;28.02;;;15.20;;
27925;SDS011;15267;47.838;12.128;2023-09-30T13:24:24;27.92;;;14.52;;
27925;SDS011;15267;47.838;12.128;2023-09-30T13:26:51;29.75;;;14.60;;
27925;SDS011;15267;47.838;12.128;2023-09-30T13:29:18;30.63;;;14.40;;
27925;SDS011;15267;47.838;12.128;2023-09-30T13:31:44;29.58;;;15.48;;
27925;SDS011;15267;47.838;12.128;2023-09-30T13:34:10;30.25;;;15.00;;
27925;SDS011;15267;47.838;12.128;2023-09-30T13:36:40;31.70;;;15.73;;
27925;SDS011;15267;47.838;12.128;2023-09-30T13:39:05;27.20;;;14.52;;
27925;SDS011;15267;47.838;12.128;2023-09-30T13:41:35;29.42;;;15.00;;
27925;SDS011;15267;47.838;12.128;2023-09-30T13:44:01;29.08;;;14.82;;
27925;SDS011;15267;47.838;12.128;2023-09-30T13:46:27;30.05;;;16.20;;
27925;SDS011;15267;47.838;12.128;2023-09-30T13:48:54;33.67;;;16.75;;
27925;SDS011;15267;47.838;12.128;2023-09-30T13:51:20;31.27;;;15.30;;
27925;SDS011;15267;47.838;12.128;2023-09-30T13:53:47;30.05;;;15.77;;
27925;SDS011;15267;47.838;12.128;2023-09-30T13:56:13;29.48;;;14.77;;
27925;SDS011;15267;47.838;12.128;2023-09-30T13:58:39;29.02;;;15.38;;
27925;SDS011;15267;47.838;12.128;2023-09-30T14:01:07;28.77;;;15.27;;
27925;SDS011;15267;47.838;12.128;2023-09-30T14:03:33;29.85;;;15.45;;
27925;SDS011;15267;47.838;12.128;2023-09-30T14:05:59;33.47;;;15.98;;
27925;SDS011;15267;47.838;12.128;2023-09-30T14:08:25;27.80;;;14.77;;
27925;SDS011;15267;47.838;12.128;2023-09-30T14:10:51;32.20;;;15.65;;
27925;SDS011;15267;47.838;12.128;2023-09-30T14:13:17;29.98;;;15.85;;
27925;SDS011;15267;47.838;12.128;2023-09-30T14:15:43;28.05;;;14.45;;
27925;SDS011;15267;47.838;12.128;2023-09-30T14:18:09;30.00;;;14.82;;
27925;SDS011;15267;47.838;12.128;2023-09-30T14:20:35;30.02;;;15.65;;
27925;SDS011;15267;47.838;12.128;2023-09-30T14:23:01;28.85;;;15.23;;
27925;SDS011;15267;47.838;12.128;2023-09-30T14:25:28;30.58;;;15.68;;
27925;SDS011;15267;47.838;12.128;2023-09-30T14:27:54;31.63;;;15.38;;
27925;SDS011;15267;47.838;12.128;2023-09-30T14:30:21;29.67;;;15.20;;